Airfield :







YOU CAN JOIN US ON...

 
LOGIN :

Register | Disclaimer

   EN    FR    IT 

 









Legend :    VFR   Marginal VFR   IFR   Intensive IFR   Very Intensive IFR
Visi :
Ceiling :
>= 8 km
>= 3000ft
5 to 8 km
1000 to 3000 ft
1500m to 5 km
500 to 1000 ft
800 to 1500m
200 to 500 ft
< 800m
< 200 ft
Symbols :   Thunderstorms  Fog  Heavy snow  Heavy precipitations  Wind > 20 kt






- Airport Elevation : 787 ft
- IATA code : RUT


KRUT - Rutland - Southern Vermont Regional

CURRENT METAR :
  • 212356Z AUTO 16004KT 10SM CLR 21/21 A2956 RMK AO2 LTG DSNT W AND NW TSE05RAE29 SLP999 P0001 6//// T02110211 10322 20206 50010 $

EXPIRED METARs :
  • 212305Z AUTO 00000KT 10SM -RA FEW016 SCT028 BKN085 21/21 A2956 RMK AO2 LTG DSNT NE AND E TSE05 P0001 $
  • 212256Z AUTO VRB03KT 10SM -TSRA FEW015 BKN029 OVC100 21/21 A2957 RMK AO2 LTG DSNT NE AND E TSB07 CIG 023V038 SLP003 T02060206 $
  • 212246Z AUTO 19004KT 4SM -TSRA BR FEW018 BKN050 OVC080 21/21 A2957 RMK AO2 LTG DSNT ALQDS TSB07 $
  • 212241Z AUTO 00000KT 1 3/4SM TSRA BR FEW022 BKN050 OVC070 21/21 A2957 RMK AO2 VIS 1/2V5 LTG DSNT NE AND SW AND W TSB07 $
  • 212218Z AUTO 04012KT 10SM TSRA FEW039 BKN050 OVC110 21/21 A2960 RMK AO2 LTG DSNT ALQDS TSB07 P0000 $
  • 212156Z AUTO 29018G31KT 9SM -RA FEW041 BKN060 BKN120 27/19 A2958 RMK AO2 PK WND 28031/2154 RAB55 PRESRR SLP006 P0000 T02670189 $

TAF KRUT
Valid from the 22 at 00:00 until the 23 at 00:00 UTC


212330Z 2200/2224 VRB04KT P6SM VCSH OVC090
TEMPO 2200/2203 2SM TS BR OVC025CB
FM220400 19005KT P6SM VCSH OVC050
FM220900 VRB03KT P6SM OVC030
FM221100 VRB03KT P6SM VCSH OVC035
FM222300 33007KT P6SM BKN060
KZBW FIR / North America



MET'MAP, your aeronautical weather chart ! - Copyright ORBIFLY December 2007 - Disclaimer

ORBIFLY MET'MAP TEAM :

Programming & Development : Alexandra Zaïnal
Concept & original design : Baudouin d'Aumeries
Assistance for programming : Marc-Olivier Méhu
Technical & hardware support : Manuel Goepfert

Contact : metmap@orbifly.com




SOURCES & CREDITS :

   NOAA